Terminal Aerodrome Forecast
Issued by NWS

Home | Current Version | Previous Version | Text Only | Print | Product List | Glossary On
Versions: 1 2 3 4 5 6 7 8 9 10 11 12 13 14 15 16 17 18 19 20 21 22 23 24 25 26 27 28 29 30 31
706
FTUS41 KBUF 291120
TAFIAG
TAF
KIAG 291120Z 2912/3012 36004KT P6SM SCT250
     FM291500 01008KT P6SM SCT030
     FM291700 36009KT P6SM SCT250
     FM300300 05005KT P6SM SCT140=

USA.gov is the U.S. government's official web portal to all federal, state and local government web resources and services.